Time;durP1;ratioP1;P1;durP2;ratioP2;P2;SDS_P1;SDS_P2;PMS_P1;PMS_P2;Temp;Humidity;BMP_temperature;BMP_pressure;BME280_temperature;BME280_humidity;BME280_pressure;Samples;Min_cycle;Max_cycle;Signal;HPM_P1;HPM_P2
2023/10/08 00:00:49;;;;;;;1999.90;999.90;;;18.50;99.90;;;;;;5100663;28;20440;-75
2023/10/08 00:03:17;;;;;;;1999.90;999.90;;;18.50;99.90;;;;;;5106660;28;20484;-74
2023/10/08 00:05:46;;;;;;;1999.90;999.90;;;18.60;99.90;;;;;;5106959;28;20485;-74
2023/10/08 00:08:14;;;;;;;1999.90;999.90;;;18.70;99.90;;;;;;5100202;28;20431;-74
2023/10/08 00:10:43;;;;;;;1999.90;999.90;;;18.50;99.90;;;;;;5099815;28;20432;-74
2023/10/08 00:13:09;;;;;;;1999.90;999.90;;;18.50;99.90;;;;;;5101729;28;20503;-74
2023/10/08 00:15:38;;;;;;;1999.90;999.90;;;18.50;99.90;;;;;;5107884;28;20524;-74
2023/10/08 00:18:05;;;;;;;1999.90;999.90;;;18.40;99.90;;;;;;5102161;28;20428;-74
2023/10/08 00:20:42;;;;;;;1999.90;999.90;;;18.40;99.90;;;;;;5097843;28;20515;-74
2023/10/08 00:23:09;;;;;;;1999.90;999.90;;;18.10;99.90;;;;;;5098600;28;20511;-72
2023/10/08 00:25:40;;;;;;;1999.90;999.90;;;17.50;99.90;;;;;;5101681;28;20853;-73
2023/10/08 00:28:11;;;;;;;1999.90;999.90;;;16.80;99.90;;;;;;5102707;28;20433;-73
2023/10/08 00:30:41;;;;;;;1999.90;999.90;;;16.00;99.90;;;;;;5101107;28;20513;-73
2023/10/08 00:33:08;;;;;;;1999.90;999.90;;;15.60;99.90;;;;;;5099272;28;20420;-72
2023/10/08 00:35:39;;;;;;;1999.90;999.90;;;15.00;99.90;;;;;;5102267;28;20424;-72
2023/10/08 00:38:14;;;;;;;1999.90;999.90;;;14.60;99.90;;;;;;5107262;28;20507;-72
2023/10/08 00:40:44;;;;;;;1999.90;999.90;;;14.30;99.90;;;;;;5102554;28;20455;-72
2023/10/08 00:43:11;;;;;;;1999.90;999.90;;;14.00;99.90;;;;;;5094988;28;20466;-72
2023/10/08 00:45:45;;;;;;;1999.90;999.90;;;13.90;99.90;;;;;;5102683;28;20434;-72
2023/10/08 00:48:16;;;;;;;1999.90;999.90;;;13.70;99.90;;;;;;5101076;28;20452;-72
2023/10/08 00:50:43;;;;;;;1999.90;999.90;;;13.70;99.90;;;;;;5106013;28;20507;-71
2023/10/08 00:53:16;;;;;;;1999.90;999.90;;;13.60;99.90;;;;;;5097840;28;20526;-72
2023/10/08 00:55:50;;;;;;;1999.90;999.90;;;13.50;99.90;;;;;;5102629;28;20460;-70
2023/10/08 00:58:23;;;;;;;1999.90;999.90;;;13.50;99.90;;;;;;5108102;28;20435;-72
2023/10/08 01:00:59;;;;;;;1999.90;999.90;;;13.50;99.90;;;;;;5109385;28;20435;-72
2023/10/08 01:03:27;;;;;;;1999.90;999.90;;;13.50;99.90;;;;;;5108537;28;20432;-72
2023/10/08 01:05:54;;;;;;;1999.90;999.90;;;13.50;99.90;;;;;;5103677;28;20424;-72
2023/10/08 01:08:34;;;;;;;1999.90;999.90;;;13.50;99.90;;;;;;5103899;28;20436;-72
2023/10/08 01:11:16;;;;;;;1999.90;999.90;;;13.60;99.90;;;;;;5107560;28;20914;-72
2023/10/08 01:13:45;;;;;;;1999.90;999.90;;;13.60;99.90;;;;;;5109444;28;20435;-72
2023/10/08 01:16:15;;;;;;;1999.90;999.90;;;13.60;99.90;;;;;;5101706;28;20432;-72
2023/10/08 01:18:50;;;;;;;1999.90;999.90;;;13.50;99.90;;;;;;5100521;28;20461;-72
2023/10/08 01:21:31;;;;;;;1999.90;999.90;;;13.40;99.90;;;;;;5106138;28;20956;-72
2023/10/08 01:24:02;;;;;;;1999.90;999.90;;;13.30;99.90;;;;;;5106002;28;20428;-72
2023/10/08 01:26:31;;;;;;;1999.90;999.90;;;13.30;99.90;;;;;;5107080;28;20503;-72
2023/10/08 01:29:02;;;;;;;1999.90;999.90;;;13.30;99.90;;;;;;5107016;28;20426;-72
2023/10/08 01:31:29;;;;;;;1999.90;999.90;;;13.10;99.90;;;;;;5103343;28;20860;-71
2023/10/08 01:33:56;;;;;;;1999.90;999.90;;;13.10;99.90;;;;;;5108644;28;20458;-72
2023/10/08 01:36:23;;;;;;;1999.90;999.90;;;13.20;99.90;;;;;;5103387;28;20431;-72
2023/10/08 01:38:50;;;;;;;1999.90;999.90;;;13.10;99.90;;;;;;5101320;28;20510;-72
2023/10/08 01:41:29;;;;;;;1999.90;999.90;;;13.00;99.90;;;;;;5098623;28;20445;-72
2023/10/08 01:43:56;;;;;;;1999.90;999.90;;;13.00;99.90;;;;;;5100518;28;20458;-72
2023/10/08 01:46:23;;;;;;;1999.90;999.90;;;12.90;99.90;;;;;;5102524;28;20425;-72
2023/10/08 01:48:55;;;;;;;1999.90;999.90;;;12.90;99.90;;;;;;5104677;28;20432;-72
2023/10/08 01:51:28;;;;;;;1999.90;999.90;;;12.90;99.90;;;;;;5100892;28;20826;-72
2023/10/08 01:53:57;;;;;;;1999.90;999.90;;;12.90;99.90;;;;;;5109162;28;20433;-72
2023/10/08 01:56:25;;;;;;;1999.90;999.90;;;12.90;99.90;;;;;;5106979;28;20796;-72
2023/10/08 01:58:52;;;;;;;1999.90;999.90;;;12.90;99.90;;;;;;5103307;28;20450;-72
2023/10/08 02:01:20;;;;;;;1999.90;999.90;;;12.90;99.90;;;;;;5106409;28;20473;-72
2023/10/08 02:03:47;;;;;;;1999.90;999.90;;;12.90;99.90;;;;;;5104863;28;20431;-72
2023/10/08 02:06:14;;;;;;;1999.90;999.90;;;12.80;99.90;;;;;;5108939;28;20443;-72
2023/10/08 02:08:41;;;;;;;1999.90;999.90;;;12.80;99.90;;;;;;5105238;28;20435;-72
2023/10/08 02:11:08;;;;;;;1999.90;999.90;;;12.80;99.90;;;;;;5103462;28;20444;-72
2023/10/08 02:13:36;;;;;;;1999.90;999.90;;;12.80;99.90;;;;;;5104837;28;20454;-72
2023/10/08 02:16:03;;;;;;;1999.90;999.90;;;12.70;99.90;;;;;;5105454;28;20428;-72
2023/10/08 02:18:30;;;;;;;1999.90;999.90;;;12.60;99.90;;;;;;5109110;27;20452;-72
2023/10/08 02:20:58;;;;;;;1999.90;999.90;;;12.50;99.90;;;;;;5108785;28;20430;-71
2023/10/08 02:23:25;;;;;;;1999.90;999.90;;;12.50;99.90;;;;;;5106469;28;20423;-72
2023/10/08 02:25:51;;;;;;;1999.90;999.90;;;12.50;99.90;;;;;;5106087;28;20973;-71
2023/10/08 02:28:20;;;;;;;1999.90;999.90;;;12.40;99.90;;;;;;5101545;28;20941;-73
2023/10/08 02:30:48;;;;;;;1999.90;999.90;;;12.40;99.90;;;;;;5106740;28;21019;-72
2023/10/08 02:33:15;;;;;;;1999.90;999.90;;;12.20;99.90;;;;;;5108840;28;20805;-72
2023/10/08 02:35:43;;;;;;;1999.90;999.90;;;12.00;99.90;;;;;;5106235;28;20485;-72
2023/10/08 02:38:10;;;;;;;1999.90;999.90;;;11.70;99.90;;;;;;5105356;28;20428;-72
2023/10/08 02:40:44;;;;;;;1999.90;999.90;;;11.50;99.90;;;;;;5101760;28;20420;-71
2023/10/08 02:43:11;;;;;;;1999.90;999.90;;;11.30;99.90;;;;;;5101841;28;21082;-72
2023/10/08 02:45:39;;;;;;;1999.90;999.90;;;11.20;99.90;;;;;;5108324;28;20431;-72
2023/10/08 02:48:11;;;;;;;1999.90;999.90;;;11.10;99.90;;;;;;5106666;28;20504;-72
2023/10/08 02:50:39;;;;;;;1999.90;999.90;;;10.90;99.90;;;;;;5104493;28;20432;-72
2023/10/08 02:53:10;;;;;;;1999.90;999.90;;;10.70;99.90;;;;;;5099317;28;20422;-72
2023/10/08 02:55:42;;;;;;;1999.90;999.90;;;10.60;99.90;;;;;;5100160;28;20812;-72
2023/10/08 02:58:11;;;;;;;1999.90;999.90;;;10.60;99.90;;;;;;5103055;28;20865;-71
2023/10/08 03:00:40;;;;;;;1999.90;999.90;;;10.60;99.90;;;;;;5106204;28;20520;-71
2023/10/08 03:03:15;;;;;;;1999.90;999.90;;;10.50;99.90;;;;;;5099278;28;20430;-72
2023/10/08 03:05:43;;;;;;;1999.90;999.90;;;10.50;99.90;;;;;;5102874;28;20770;-72
2023/10/08 03:08:11;;;;;;;1999.90;999.90;;;10.40;99.90;;;;;;5098551;28;20451;-71
2023/10/08 03:10:38;;;;;;;1999.90;999.90;;;10.40;99.90;;;;;;5097626;28;20417;-72
2023/10/08 03:13:06;;;;;;;1999.90;999.90;;;10.50;99.90;;;;;;5105456;28;20439;-72
2023/10/08 03:15:46;;;;;;;1999.90;999.90;;;10.60;99.90;;;;;;5101222;28;20918;-71
2023/10/08 03:18:15;;;;;;;1999.90;999.90;;;10.60;99.90;;;;;;5099588;28;20506;-72
2023/10/08 03:20:45;;;;;;;1999.90;999.90;;;10.60;99.90;;;;;;5101203;28;20463;-72
2023/10/08 03:23:22;;;;;;;1999.90;999.90;;;10.70;99.90;;;;;;5099386;28;20451;-72
2023/10/08 03:25:56;;;;;;;1999.90;999.90;;;10.70;99.90;;;;;;5104054;28;20424;-70
2023/10/08 03:28:24;;;;;;;1999.90;999.90;;;10.80;99.90;;;;;;5101089;28;20508;-72
2023/10/08 03:30:56;;;;;;;1999.90;999.90;;;10.80;99.90;;;;;;5102974;28;20544;-72
2023/10/08 03:33:24;;;;;;;1999.90;999.90;;;10.80;99.90;;;;;;5100235;28;20486;-72
2023/10/08 03:35:52;;;;;;;1999.90;999.90;;;10.90;99.90;;;;;;5100900;28;20424;-72
2023/10/08 03:38:27;;;;;;;1999.90;999.90;;;10.90;99.90;;;;;;5105478;28;20428;-72
2023/10/08 03:40:57;;;;;;;1999.90;999.90;;;10.90;99.90;;;;;;5100757;28;20424;-72
2023/10/08 03:43:33;;;;;;;1999.90;999.90;;;10.80;99.90;;;;;;5100966;28;20512;-72
2023/10/08 03:46:05;;;;;;;1999.90;999.90;;;10.60;99.90;;;;;;5098567;28;20434;-72
2023/10/08 03:48:38;;;;;;;1999.90;999.90;;;10.70;99.90;;;;;;5098525;28;20448;-72
2023/10/08 03:51:11;;;;;;;1999.90;999.90;;;10.60;99.90;;;;;;5104553;28;20789;-72
2023/10/08 03:53:52;;;;;;;1999.90;999.90;;;10.60;99.90;;;;;;5102562;28;20518;-72
2023/10/08 03:56:19;;;;;;;1999.90;999.90;;;10.60;99.90;;;;;;5102120;28;20426;-72
2023/10/08 03:58:46;;;;;;;1999.90;999.90;;;10.60;99.90;;;;;;5100063;28;20435;-72
2023/10/08 04:01:18;;;;;;;1999.90;999.90;;;10.60;99.90;;;;;;5097089;28;20433;-73
2023/10/08 04:03:58;;;;;;;1999.90;999.90;;;10.60;99.90;;;;;;5105924;28;20424;-72
2023/10/08 04:06:30;;;;;;;1999.90;999.90;;;10.60;99.90;;;;;;5106033;28;20424;-72
2023/10/08 04:09:11;;;;;;;1999.90;999.90;;;10.70;99.90;;;;;;5096262;28;20566;-72
2023/10/08 04:11:51;;;;;;;1999.90;999.90;;;10.60;99.90;;;;;;5105618;28;20517;-72
2023/10/08 04:14:19;;;;;;;1999.90;999.90;;;10.60;99.90;;;;;;5096653;28;20514;-72
2023/10/08 04:16:46;;;;;;;1999.90;999.90;;;10.60;99.90;;;;;;5101153;28;20424;-72
2023/10/08 04:19:18;;;;;;;1999.90;999.90;;;10.70;99.90;;;;;;5102206;28;20431;-72
2023/10/08 04:21:45;;;;;;;1999.90;999.90;;;10.70;99.90;;;;;;5098799;28;20428;-70
2023/10/08 04:24:14;;;;;;;1999.90;999.90;;;10.60;99.90;;;;;;5102133;28;20473;-72
2023/10/08 04:26:42;;;;;;;1999.90;999.90;;;10.60;99.90;;;;;;5102064;28;20473;-72
2023/10/08 04:29:09;;;;;;;1999.90;999.90;;;10.50;99.90;;;;;;5107035;28;20426;-71
2023/10/08 04:31:38;;;;;;;1999.90;999.90;;;10.50;99.90;;;;;;5109874;28;21037;-72
2023/10/08 04:34:09;;;;;;;1999.90;999.90;;;10.40;99.90;;;;;;5101687;28;20426;-72
2023/10/08 04:36:38;;;;;;;1999.90;999.90;;;10.70;99.90;;;;;;5104133;28;20477;-71
2023/10/08 04:39:13;;;;;;;1999.90;999.90;;;10.40;99.90;;;;;;5105373;28;20973;-72
2023/10/08 04:41:42;;;;;;;1999.90;999.90;;;10.50;99.90;;;;;;5104914;28;20427;-71
2023/10/08 04:44:14;;;;;;;1999.90;999.90;;;10.50;99.90;;;;;;5103947;28;20423;-72
2023/10/08 04:46:47;;;;;;;1999.90;999.90;;;10.40;99.90;;;;;;5111001;28;20432;-72
2023/10/08 04:49:26;;;;;;;1999.90;999.90;;;10.30;99.90;;;;;;5103799;28;20423;-71
2023/10/08 04:51:56;;;;;;;1999.90;999.90;;;10.20;99.90;;;;;;5102164;28;20930;-71
2023/10/08 04:54:24;;;;;;;1999.90;999.90;;;10.30;99.90;;;;;;5109557;28;20431;-72
2023/10/08 04:56:53;;;;;;;1999.90;999.90;;;10.20;99.90;;;;;;5104779;28;20437;-69
2023/10/08 04:59:22;;;;;;;1999.90;999.90;;;10.40;99.90;;;;;;5111256;28;20436;-71
2023/10/08 05:02:12;;;;;;;1999.90;999.90;;;10.60;99.90;;;;;;5098802;28;20508;-72
2023/10/08 05:04:46;;;;;;;1999.90;999.90;;;10.80;99.90;;;;;;5099788;28;20414;-71
2023/10/08 05:07:40;;;;;;;1999.90;999.90;;;10.90;99.90;;;;;;5101540;28;20767;-72
2023/10/08 05:10:11;;;;;;;1999.90;999.90;;;11.00;99.90;;;;;;5108006;28;20437;-70
2023/10/08 05:12:46;;;;;;;1999.90;999.90;;;10.90;99.90;;;;;;5110690;28;20473;-72
2023/10/08 05:15:32;;;;;;;1999.90;999.90;;;10.80;99.90;;;;;;5100579;28;20445;-71
2023/10/08 05:18:13;;;;;;;1999.90;999.90;;;10.90;99.90;;;;;;5099407;28;20427;-72
2023/10/08 05:20:59;;;;;;;1999.90;999.90;;;10.70;99.90;;;;;;5096816;28;20985;-71
2023/10/08 05:26:20;;;;;;;1999.90;999.90;;;11.00;99.90;;;;;;5104887;28;21043;-72
2023/10/08 05:29:00;;;;;;;1999.90;999.90;;;10.90;99.90;;;;;;5100440;28;20449;-71
2023/10/08 05:31:46;;;;;;;1999.90;999.90;;;11.00;99.90;;;;;;5097495;28;20428;-71
2023/10/08 05:34:22;;;;;;;1999.90;999.90;;;11.00;99.90;;;;;;5098089;28;20479;-71
2023/10/08 05:37:14;;;;;;;1999.90;999.90;;;11.10;99.90;;;;;;5103842;28;20426;-71
2023/10/08 05:39:46;;;;;;;1999.90;999.90;;;11.30;99.90;;;;;;5097628;28;20421;-71
2023/10/08 05:42:16;;;;;;;1999.90;999.90;;;11.30;99.90;;;;;;5096076;28;20456;-72
2023/10/08 05:45:13;;;;;;;1999.90;999.90;;;11.30;99.90;;;;;;5098782;28;20907;-72
2023/10/08 05:47:41;;;;;;;1999.90;999.90;;;11.20;99.90;;;;;;5095888;28;20432;-70
2023/10/08 05:53:01;;;;;;;1999.90;999.90;;;11.30;99.90;;;;;;5096964;28;20431;-72
2023/10/08 05:55:34;;;;;;;1999.90;999.90;;;11.30;99.90;;;;;;5100715;28;20955;-72
2023/10/08 05:58:24;;;;;;;1999.90;999.90;;;11.50;99.90;;;;;;5099549;28;20424;-72
2023/10/08 06:01:07;;;;;;;1999.90;999.90;;;11.50;99.90;;;;;;5098455;28;20429;-71
2023/10/08 06:03:36;;;;;;;1999.90;999.90;;;11.60;99.90;;;;;;5107588;28;20415;-72
2023/10/08 06:06:22;;;;;;;1999.90;999.90;;;11.60;99.90;;;;;;5102495;28;20483;-72
2023/10/08 06:08:51;;;;;;;1999.90;999.90;;;11.60;99.90;;;;;;5104868;28;20485;-72
2023/10/08 06:11:37;;;;;;;1999.90;999.90;;;11.60;99.90;;;;;;5097797;28;20903;-72
2023/10/08 06:14:13;;;;;;;1999.90;999.90;;;11.70;99.90;;;;;;5102625;28;20864;-71
2023/10/08 06:16:41;;;;;;;1999.90;999.90;;;11.70;99.90;;;;;;5106143;28;20515;-72
2023/10/08 06:19:09;;;;;;;1999.90;999.90;;;11.70;99.90;;;;;;5100842;28;20424;-71
2023/10/08 06:21:37;;;;;;;1999.90;999.90;;;11.70;99.90;;;;;;5095745;28;20461;-72
2023/10/08 06:24:08;;;;;;;1999.90;999.90;;;11.70;99.90;;;;;;5095770;28;20429;-72
2023/10/08 06:26:42;;;;;;;1999.90;999.90;;;11.80;99.90;;;;;;5096041;28;20913;-71
2023/10/08 06:29:18;;;;;;;1999.90;999.90;;;11.70;99.90;;;;;;5103102;28;20424;-71
2023/10/08 06:31:51;;;;;;;1999.90;999.90;;;11.70;99.90;;;;;;5103166;28;20509;-72
2023/10/08 06:34:21;;;;;;;1999.90;999.90;;;11.50;99.90;;;;;;5097833;28;21182;-71
2023/10/08 06:36:48;;;;;;;1999.90;999.90;;;11.50;99.90;;;;;;5097857;28;20433;-71
2023/10/08 06:39:19;;;;;;;1999.90;999.90;;;11.50;99.90;;;;;;5097783;28;20426;-72
2023/10/08 06:41:47;;;;;;;1999.90;999.90;;;11.50;99.90;;;;;;5104357;28;20493;-71
2023/10/08 06:44:15;;;;;;;1999.90;999.90;;;11.50;99.90;;;;;;5105509;28;20479;-71
2023/10/08 06:46:42;;;;;;;1999.90;999.90;;;11.50;99.90;;;;;;5097175;28;20432;-71
2023/10/08 06:49:13;;;;;;;1999.90;999.90;;;11.60;99.90;;;;;;5098262;28;20429;-73
2023/10/08 06:51:41;;;;;;;1999.90;999.90;;;11.60;99.90;;;;;;5096020;28;20432;-74
2023/10/08 06:54:10;;;;;;;1999.90;999.90;;;11.40;99.90;;;;;;5092911;28;20422;-72
2023/10/08 06:56:38;;;;;;;1999.90;999.90;;;11.70;99.90;;;;;;5102999;28;20431;-73
2023/10/08 06:59:09;;;;;;;1999.90;999.90;;;11.70;99.90;;;;;;5093449;28;20432;-73
2023/10/08 07:01:39;;;;;;;1999.90;999.90;;;11.80;99.90;;;;;;5098934;27;20797;-73
2023/10/08 07:04:11;;;;;;;1999.90;999.90;;;11.80;99.90;;;;;;5097824;28;20424;-73
2023/10/08 07:06:39;;;;;;;1999.90;999.90;;;11.70;99.90;;;;;;5093709;28;20886;-75
2023/10/08 07:09:22;;;;;;;1999.90;999.90;;;11.70;99.90;;;;;;5098189;28;20420;-73
2023/10/08 07:11:54;;;;;;;1999.90;999.90;;;11.90;99.90;;;;;;5103999;28;20428;-73
2023/10/08 07:14:26;;;;;;;1999.90;999.90;;;12.00;99.90;;;;;;5105243;28;20448;-72
2023/10/08 07:16:54;;;;;;;1999.90;999.90;;;12.30;99.90;;;;;;5093670;28;20421;-73
2023/10/08 07:19:23;;;;;;;1999.90;999.90;;;12.10;99.90;;;;;;5092231;28;20430;-73
2023/10/08 07:21:54;;;;;;;1999.90;999.90;;;12.20;99.90;;;;;;5097566;28;20423;-73
2023/10/08 07:24:21;;;;;;;1999.90;999.90;;;12.20;99.90;;;;;;5095667;28;20427;-73
2023/10/08 07:26:49;;;;;;;1999.90;999.90;;;12.40;99.90;;;;;;5106950;28;20420;-72
2023/10/08 07:29:17;;;;;;;1999.90;999.90;;;12.50;99.90;;;;;;5098410;28;20496;-74
2023/10/08 07:31:48;;;;;;;1999.90;999.90;;;12.10;99.90;;;;;;5090892;28;20982;-73
2023/10/08 07:34:25;;;;;;;1999.90;999.90;;;12.60;99.90;;;;;;5091981;28;20888;-74
2023/10/08 07:36:54;;;;;;;1999.90;999.90;;;12.70;99.90;;;;;;5097125;28;20442;-73
2023/10/08 07:39:26;;;;;;;1999.90;999.90;;;12.80;99.90;;;;;;5092639;28;20509;-73
2023/10/08 07:41:54;;;;;;;1999.90;999.90;;;12.80;99.90;;;;;;5099901;28;20427;-73
2023/10/08 07:44:21;;;;;;;1999.90;999.90;;;12.80;99.90;;;;;;5104414;28;20505;-74
2023/10/08 07:46:49;;;;;;;1999.90;999.90;;;12.80;99.90;;;;;;5097635;28;20425;-73
2023/10/08 07:49:16;;;;;;;1999.90;999.90;;;13.00;99.90;;;;;;5091128;28;20512;-73
2023/10/08 07:51:50;;;;;;;1999.90;999.90;;;13.20;99.90;;;;;;5092678;28;20465;-73
2023/10/08 07:54:19;;;;;;;1999.90;999.90;;;13.30;99.90;;;;;;5098168;28;20438;-73
2023/10/08 07:56:46;;;;;;;1999.90;999.90;;;13.20;99.90;;;;;;5098520;28;20516;-72
2023/10/08 07:59:14;;;;;;;1999.90;999.90;;;13.30;99.90;;;;;;5088665;28;20457;-74
2023/10/08 08:01:42;;;;;;;1999.90;999.90;;;13.30;99.90;;;;;;5093060;28;20422;-73
2023/10/08 08:04:12;;;;;;;1999.90;999.90;;;13.40;99.90;;;;;;5099675;28;20981;-73
2023/10/08 08:06:39;;;;;;;1999.90;999.90;;;13.40;99.90;;;;;;5096158;28;20432;-73
2023/10/08 08:09:17;;;;;;;1999.90;999.90;;;13.40;99.90;;;;;;5104112;28;20428;-73
2023/10/08 08:11:45;;;;;;;1999.90;999.90;;;13.40;99.90;;;;;;5091765;28;21015;-73
2023/10/08 08:14:15;;;;;;;1999.90;999.90;;;13.50;99.90;;;;;;5093715;28;20451;-73
2023/10/08 08:16:46;;;;;;;1999.90;999.90;;;13.50;99.90;;;;;;5102722;28;20430;-73
2023/10/08 08:19:15;;;;;;;1999.90;999.90;;;13.40;99.90;;;;;;5090355;28;20438;-73
2023/10/08 08:21:45;;;;;;;1999.90;999.90;;;13.30;99.90;;;;;;5096405;28;20434;-73
2023/10/08 08:24:12;;;;;;;1999.90;999.90;;;13.30;99.90;;;;;;5096694;28;20427;-73
2023/10/08 08:26:44;;;;;;;1999.90;999.90;;;13.60;99.90;;;;;;5094025;28;20430;-73
2023/10/08 08:29:15;;;;;;;1999.90;999.90;;;13.80;99.90;;;;;;5103067;28;20921;-73
2023/10/08 08:31:46;;;;;;;1999.90;999.90;;;14.30;99.90;;;;;;5100503;28;20944;-72
2023/10/08 08:34:19;;;;;;;1999.90;999.90;;;14.40;99.90;;;;;;5096146;28;20436;-73
2023/10/08 08:36:48;;;;;;;1999.90;999.90;;;14.90;99.90;;;;;;5097816;28;20450;-73
2023/10/08 08:39:27;;;;;;;1999.90;999.90;;;14.80;99.90;;;;;;5095770;28;20429;-73
2023/10/08 08:41:59;;;;;;;1999.90;999.90;;;14.50;99.90;;;;;;5091221;28;20490;-73
2023/10/08 08:44:30;;;;;;;1999.90;999.90;;;14.40;99.90;;;;;;5096265;28;20469;-73
2023/10/08 08:46:59;;;;;;;1999.90;999.90;;;14.40;99.90;;;;;;5102731;28;20515;-73
2023/10/08 08:49:28;;;;;;;1999.90;999.90;;;14.50;99.90;;;;;;5092896;28;20530;-73
2023/10/08 08:52:00;;;;;;;1999.90;999.90;;;14.70;99.90;;;;;;5092288;28;20520;-73
2023/10/08 08:54:30;;;;;;;1999.90;999.90;;;14.70;99.90;;;;;;5095899;28;20444;-71
2023/10/08 08:56:59;;;;;;;1999.90;999.90;;;14.80;99.90;;;;;;5106440;28;20447;-73
2023/10/08 08:59:26;;;;;;;1999.90;999.90;;;14.70;99.90;;;;;;5095205;28;20514;-73
2023/10/08 09:01:55;;;;;;;1999.90;999.90;;;14.60;99.90;;;;;;5109803;28;20422;-73
2023/10/08 09:04:31;;;;;;;1999.90;999.90;;;14.30;99.90;;;;;;5110294;28;20408;-73
2023/10/08 09:06:59;;;;;;;1999.90;999.90;;;14.40;99.90;;;;;;5110172;28;20438;-73
2023/10/08 09:09:32;;;;;;;1999.90;999.90;;;14.60;99.90;;;;;;5110233;28;20548;-73
2023/10/08 09:11:59;;;;;;;1999.90;999.90;;;14.60;99.90;;;;;;5109957;28;20778;-73
2023/10/08 09:14:27;;;;;;;1999.90;999.90;;;14.70;99.90;;;;;;5107760;28;20420;-73
2023/10/08 09:16:55;;;;;;;1999.90;999.90;;;14.80;99.90;;;;;;5103189;28;20414;-73
2023/10/08 09:19:24;;;;;;;1999.90;999.90;;;14.80;99.90;;;;;;5093670;28;20471;-73
2023/10/08 09:22:04;;;;;;;1999.90;999.90;;;14.90;99.90;;;;;;5093492;28;20899;-73
2023/10/08 09:24:30;;;;;;;1999.90;999.90;;;15.00;99.90;;;;;;5093506;28;20416;-73
2023/10/08 09:26:58;;;;;;;1999.90;999.90;;;15.00;99.90;;;;;;5092643;28;20410;-72
2023/10/08 09:29:25;;;;;;;1999.90;999.90;;;15.20;99.90;;;;;;5109196;28;20512;-73
2023/10/08 09:31:56;;;;;;;1999.90;999.90;;;15.10;99.90;;;;;;5104126;28;20432;-73
2023/10/08 09:34:27;;;;;;;1999.90;999.90;;;15.30;99.90;;;;;;5093218;28;20807;-73
2023/10/08 09:36:56;;;;;;;1999.90;999.90;;;15.60;99.90;;;;;;5101448;28;20432;-72
2023/10/08 09:39:26;;;;;;;1999.90;999.90;;;15.30;99.90;;;;;;5108021;28;20417;-73
2023/10/08 09:41:55;;;;;;;1999.90;999.90;;;15.50;99.90;;;;;;5093530;28;20457;-73
2023/10/08 09:44:24;;;;;;;1999.90;999.90;;;15.50;99.90;;;;;;5111665;28;20489;-73
2023/10/08 09:46:55;;;;;;;1999.90;999.90;;;15.30;99.90;;;;;;5111576;28;20412;-73
2023/10/08 09:49:31;;;;;;;1999.90;999.90;;;15.40;99.90;;;;;;5092984;28;20421;-73
2023/10/08 09:52:01;;;;;;;1999.90;999.90;;;15.50;99.90;;;;;;5092769;28;20991;-73
2023/10/08 09:54:37;;;;;;;1999.90;999.90;;;15.40;99.90;;;;;;5092990;28;20410;-73
2023/10/08 09:57:06;;;;;;;1999.90;999.90;;;15.30;99.90;;;;;;5092797;28;20467;-72
2023/10/08 09:59:34;;;;;;;1999.90;999.90;;;15.20;99.90;;;;;;5107272;28;20428;-73
2023/10/08 10:02:02;;;;;;;1999.90;999.90;;;15.30;99.90;;;;;;5102398;28;20401;-73
2023/10/08 10:04:31;;;;;;;1999.90;999.90;;;15.50;99.90;;;;;;5092532;28;20445;-73
2023/10/08 10:06:58;;;;;;;1999.90;999.90;;;15.80;99.90;;;;;;5092370;28;20916;-73
2023/10/08 10:09:26;;;;;;;1999.90;999.90;;;15.50;99.90;;;;;;5092624;28;21133;-73
2023/10/08 10:11:56;;;;;;;1999.90;999.90;;;15.60;99.90;;;;;;5092670;28;20448;-73
2023/10/08 10:14:24;;;;;;;1999.90;999.90;;;15.60;99.90;;;;;;5111490;28;20424;-73
2023/10/08 10:17:10;;;;;;;1999.90;999.90;;;15.60;99.90;;;;;;5103037;27;20434;-73
2023/10/08 10:19:37;;;;;;;1999.90;999.90;;;15.60;99.90;;;;;;5092625;28;20502;-73
2023/10/08 10:22:05;;;;;;;1999.90;999.90;;;15.60;99.90;;;;;;5092389;28;20428;-72
2023/10/08 10:24:35;;;;;;;1999.90;999.90;;;15.50;99.90;;;;;;5092416;28;20466;-73
2023/10/08 10:27:14;;;;;;;1999.90;999.90;;;15.50;99.90;;;;;;5093789;28;20426;-72
2023/10/08 10:29:43;;;;;;;1999.90;999.90;;;15.40;99.90;;;;;;5110353;28;20439;-72
2023/10/08 10:32:13;;;;;;;1999.90;999.90;;;15.70;99.90;;;;;;5111819;28;20428;-73
2023/10/08 10:34:40;;;;;;;1999.90;999.90;;;15.90;99.90;;;;;;5112674;28;20427;-74
2023/10/08 10:37:09;;;;;;;1999.90;999.90;;;15.90;99.90;;;;;;5112236;28;20415;-73
2023/10/08 10:39:39;;;;;;;1999.90;999.90;;;15.80;99.90;;;;;;5112568;28;20782;-74
2023/10/08 10:42:20;;;;;;;1999.90;999.90;;;16.10;99.90;;;;;;5112238;28;20812;-74
2023/10/08 10:44:50;;;;;;;1999.90;999.90;;;16.40;99.90;;;;;;5109277;28;20517;-72
2023/10/08 10:47:27;;;;;;;1999.90;999.90;;;16.40;99.90;;;;;;5102375;28;20537;-74
2023/10/08 10:50:16;;;;;;;1999.90;999.90;;;16.40;99.90;;;;;;5105345;28;20425;-73
2023/10/08 10:52:51;;;;;;;1999.90;999.90;;;16.30;99.90;;;;;;5111809;28;20519;-73
2023/10/08 10:55:20;;;;;;;1999.90;999.90;;;16.60;99.90;;;;;;5108557;28;20409;-73
2023/10/08 10:57:56;;;;;;;1999.90;999.90;;;16.70;99.90;;;;;;5104833;27;20473;-73
2023/10/08 11:03:16;;;;;;;1999.90;999.90;;;16.80;99.90;;;;;;5107321;28;20940;-72
2023/10/08 11:05:49;;;;;;;1999.90;999.90;;;16.40;99.90;;;;;;5109948;28;20432;-72
2023/10/08 11:08:18;;;;;;;1999.90;999.90;;;16.30;99.90;;;;;;5104378;28;20416;-73
2023/10/08 11:10:48;;;;;;;1999.90;999.90;;;16.30;99.90;;;;;;5109485;28;20463;-73
2023/10/08 11:13:16;;;;;;;1999.90;999.90;;;16.30;99.90;;;;;;5108551;28;20420;-74
2023/10/08 11:15:49;;;;;;;1999.90;999.90;;;16.40;99.90;;;;;;5111711;28;20431;-73
2023/10/08 11:18:17;;;;;;;1999.90;999.90;;;16.50;99.90;;;;;;5111740;28;20416;-73
2023/10/08 11:20:45;;;;;;;1999.90;999.90;;;16.40;99.90;;;;;;5111748;28;20478;-73
2023/10/08 11:23:21;;;;;;;1999.90;999.90;;;16.70;99.90;;;;;;5111283;28;20404;-73
2023/10/08 11:25:54;;;;;;;1999.90;999.90;;;16.70;99.90;;;;;;5106005;28;21293;-72
2023/10/08 11:28:22;;;;;;;1999.90;999.90;;;16.50;99.90;;;;;;5105739;28;20442;-73
2023/10/08 11:30:53;;;;;;;1999.90;999.90;;;16.40;99.90;;;;;;5106414;28;20412;-73
2023/10/08 11:33:20;;;;;;;1999.90;999.90;;;16.60;99.90;;;;;;5111273;28;20505;-71
2023/10/08 11:35:59;;;;;;;1999.90;999.90;;;16.30;99.90;;;;;;5111135;28;20507;-73
2023/10/08 11:38:27;;;;;;;1999.90;999.90;;;16.00;99.90;;;;;;5110672;28;20495;-74
2023/10/08 11:40:56;;;;;;;1999.90;999.90;;;16.50;99.90;;;;;;5111264;28;20495;-73
2023/10/08 11:43:23;;;;;;;1999.90;999.90;;;16.50;99.90;;;;;;5106673;28;20421;-73
2023/10/08 11:45:52;;;;;;;1999.90;999.90;;;16.80;99.90;;;;;;5105255;28;20430;-73
2023/10/08 11:48:25;;;;;;;1999.90;999.90;;;17.00;99.90;;;;;;5103876;28;20495;-73
2023/10/08 11:50:52;;;;;;;1999.90;999.90;;;16.50;99.90;;;;;;5090558;28;20413;-74
2023/10/08 11:53:20;;;;;;;1999.90;999.90;;;16.50;99.90;;;;;;5090625;28;20431;-72
2023/10/08 11:55:47;;;;;;;1999.90;999.90;;;16.50;99.90;;;;;;5090088;28;20486;-72
2023/10/08 11:58:17;;;;;;;1999.90;999.90;;;16.30;99.90;;;;;;5108489;28;20415;-73
2023/10/08 12:00:45;;;;;;;1999.90;999.90;;;16.20;99.90;;;;;;5094245;28;20410;-74
2023/10/08 12:03:17;;;;;;;1999.90;999.90;;;16.10;99.90;;;;;;5090250;28;20402;-74
2023/10/08 12:05:47;;;;;;;1999.90;999.90;;;16.40;99.90;;;;;;5090494;28;20505;-74
2023/10/08 12:08:16;;;;;;;1999.90;999.90;;;16.40;99.90;;;;;;5090430;28;20437;-74
2023/10/08 12:10:45;;;;;;;1999.90;999.90;;;16.50;99.90;;;;;;5098104;28;20432;-73
2023/10/08 12:13:12;;;;;;;1999.90;999.90;;;16.30;99.90;;;;;;5105954;28;20431;-74
2023/10/08 12:15:41;;;;;;;1999.90;999.90;;;16.80;99.90;;;;;;5110389;28;20404;-73
2023/10/08 12:18:15;;;;;;;1999.90;999.90;;;17.00;99.90;;;;;;5110554;28;20476;-74
2023/10/08 12:20:47;;;;;;;1999.90;999.90;;;17.70;99.90;;;;;;5110846;28;20537;-74
2023/10/08 12:23:24;;;;;;;1999.90;999.90;;;17.90;99.90;;;;;;5104418;28;20450;-74
2023/10/08 12:25:52;;;;;;;1999.90;999.90;;;17.70;99.90;;;;;;5100986;28;20823;-73